Time;durP1;ratioP1;P1;durP2;ratioP2;P2;SDS_P1;SDS_P2;PMS_P1;PMS_P2;Temp;Humidity;BMP_temperature;BMP_pressure;BME280_temperature;BME280_humidity;BME280_pressure;Samples;Min_cycle;Max_cycle;Signal;HPM_P1;HPM_P2
2022/05/03 00:00:09;;;;;;;3.07;2.87;;;16.60;35.00;;;;;;10342142;28;20673;-72
2022/05/03 00:05:19;;;;;;;3.40;3.20;;;16.50;34.70;;;;;;10343530;28;20227;-73
2022/05/03 00:10:29;;;;;;;3.20;3.00;;;16.50;35.20;;;;;;10344152;28;20262;-72
2022/05/03 00:15:36;;;;;;;3.30;3.03;;;16.40;34.70;;;;;;10340166;28;20847;-72
2022/05/03 00:20:41;;;;;;;3.27;3.07;;;16.20;34.80;;;;;;10343412;28;20225;-73
2022/05/03 00:25:45;;;;;;;3.20;3.00;;;16.00;34.70;;;;;;10338743;28;20226;-73
2022/05/03 00:30:49;;;;;;;3.43;3.00;;;15.90;34.60;;;;;;10352127;28;20234;-73
2022/05/03 00:35:53;;;;;;;3.27;3.07;;;15.80;35.10;;;;;;10342121;28;20235;-73
2022/05/03 00:41:01;;;;;;;3.20;3.00;;;15.80;34.70;;;;;;10340375;28;20221;-73
2022/05/03 00:46:09;;;;;;;3.67;3.40;;;15.80;35.20;;;;;;10337813;28;20230;-73
2022/05/03 00:51:17;;;;;;;2.67;2.47;;;15.70;35.40;;;;;;10339091;28;20710;-73
2022/05/03 00:56:35;;;;;;;2.67;2.47;;;15.70;35.20;;;;;;10344435;28;20236;-73
2022/05/03 01:01:53;;;;;;;3.30;3.10;;;15.60;35.50;;;;;;10343912;28;20788;-73
2022/05/03 01:07:05;;;;;;;3.30;3.10;;;15.70;35.60;;;;;;10340300;28;20233;-74
2022/05/03 01:12:26;;;;;;;2.77;2.57;;;15.60;35.10;;;;;;10345331;28;20227;-74
2022/05/03 01:17:41;;;;;;;2.87;2.67;;;15.50;35.80;;;;;;10343090;28;20237;-72
2022/05/03 01:23:12;;;;;;;3.63;3.33;;;15.40;35.80;;;;;;10343272;28;20222;-73
2022/05/03 01:28:30;;;;;;;3.67;3.37;;;15.30;36.20;;;;;;10333507;28;20226;-73
2022/05/03 01:33:39;;;;;;;3.47;3.27;;;15.20;36.10;;;;;;10343582;28;20232;-73
2022/05/03 01:38:57;;;;;;;3.37;3.17;;;15.10;35.80;;;;;;10336052;28;20233;-73
2022/05/03 01:44:21;;;;;;;4.17;3.90;;;15.10;36.40;;;;;;10338858;28;20230;-73
2022/05/03 01:55:27;;;;;;;4.33;3.70;;;15.00;36.20;;;;;;10340207;28;20226;-73
2022/05/03 02:00:35;;;;;;;4.03;3.73;;;14.90;36.30;;;;;;10340842;28;20943;-73
2022/05/03 02:05:52;;;;;;;3.67;3.37;;;14.90;36.00;;;;;;10335792;28;20946;-73
2022/05/03 02:11:08;;;;;;;3.60;3.37;;;14.80;35.80;;;;;;10340017;28;20226;-74
2022/05/03 02:16:12;;;;;;;3.77;3.57;;;14.80;35.80;;;;;;10333274;28;20596;-73
2022/05/03 02:21:22;;;;;;;3.80;3.50;;;14.70;35.30;;;;;;10339101;28;20227;-73
2022/05/03 02:26:32;;;;;;;3.33;3.07;;;14.60;35.80;;;;;;10337219;28;20234;-74
2022/05/03 02:31:49;;;;;;;4.10;3.80;;;14.50;35.70;;;;;;10334341;28;20241;-73
2022/05/03 02:37:00;;;;;;;4.30;4.00;;;14.40;36.30;;;;;;10337013;28;20234;-73
2022/05/03 02:42:03;;;;;;;5.80;3.60;;;14.30;35.90;;;;;;10340043;28;20592;-73
2022/05/03 02:47:10;;;;;;;4.00;3.70;;;14.20;35.40;;;;;;10336560;28;20219;-73
2022/05/03 02:52:25;;;;;;;5.03;4.50;;;14.00;35.50;;;;;;10334952;28;20703;-73
2022/05/03 02:57:37;;;;;;;4.10;3.80;;;13.80;36.50;;;;;;10342611;28;20758;-73
2022/05/03 03:02:50;;;;;;;4.17;3.80;;;13.70;36.60;;;;;;10340496;28;20236;-73
2022/05/03 03:07:58;;;;;;;4.23;3.93;;;13.60;36.50;;;;;;10342185;28;20316;-73
2022/05/03 03:13:11;;;;;;;3.93;3.63;;;13.60;36.60;;;;;;10341366;28;20229;-73
2022/05/03 03:18:15;;;;;;;4.27;3.97;;;13.60;36.80;;;;;;10308302;28;20231;-73
2022/05/03 03:23:25;;;;;;;10.17;6.20;;;13.70;36.50;;;;;;10306324;28;20238;-73
2022/05/03 03:28:30;;;;;;;6.20;5.67;;;13.70;37.10;;;;;;10305398;28;20234;-73
2022/05/03 03:33:37;;;;;;;10.30;5.77;;;13.70;36.40;;;;;;10305301;28;20715;-73
2022/05/03 03:38:47;;;;;;;6.10;5.57;;;13.60;36.40;;;;;;10303151;28;20224;-73
2022/05/03 03:43:50;;;;;;;5.00;4.60;;;13.40;37.30;;;;;;10304953;28;20238;-73
2022/05/03 03:48:53;;;;;;;5.50;5.03;;;13.40;36.50;;;;;;10304560;28;20599;-73
2022/05/03 03:53:58;;;;;;;5.17;4.77;;;13.30;36.60;;;;;;10306211;28;20223;-76
2022/05/03 03:59:03;;;;;;;5.57;5.17;;;13.30;37.20;;;;;;10307596;28;20223;-77
2022/05/03 04:04:09;;;;;;;5.30;4.90;;;13.30;37.70;;;;;;10304470;28;20231;-76
2022/05/03 04:09:14;;;;;;;4.60;4.20;;;13.30;37.20;;;;;;10311594;28;20616;-77
2022/05/03 04:14:17;;;;;;;4.13;3.83;;;13.20;37.70;;;;;;10308658;28;20227;-77
2022/05/03 04:19:20;;;;;;;4.30;4.00;;;13.20;37.30;;;;;;10310987;28;20321;-77
2022/05/03 04:24:25;;;;;;;3.97;3.67;;;13.20;37.50;;;;;;10304472;28;20231;-77
2022/05/03 04:29:28;;;;;;;4.30;4.00;;;13.30;38.00;;;;;;10307806;28;20263;-77
2022/05/03 04:34:31;;;;;;;4.13;3.83;;;13.30;37.80;;;;;;10306066;28;20237;-77
2022/05/03 04:39:36;;;;;;;4.10;3.80;;;13.40;37.80;;;;;;10301259;28;20246;-77
2022/05/03 04:44:39;;;;;;;4.57;4.27;;;13.40;38.30;;;;;;10305040;28;20230;-77
2022/05/03 04:49:42;;;;;;;4.17;3.70;;;13.50;38.00;;;;;;10310557;28;20227;-77
2022/05/03 04:54:47;;;;;;;4.50;4.17;;;13.60;37.80;;;;;;10301595;28;20231;-77
2022/05/03 04:59:50;;;;;;;4.30;4.00;;;13.60;38.20;;;;;;10303212;28;21287;-77
2022/05/03 05:04:54;;;;;;;4.60;4.30;;;13.70;37.90;;;;;;10303498;28;20247;-77
2022/05/03 05:15:19;;;;;;;5.00;4.50;;;13.70;38.50;;;;;;10306291;28;20829;-78
2022/05/03 05:20:23;;;;;;;6.07;5.50;;;13.70;38.00;;;;;;10309073;28;20235;-78
2022/05/03 05:25:27;;;;;;;5.30;4.90;;;13.70;38.10;;;;;;10310484;28;20235;-78
2022/05/03 05:30:31;;;;;;;4.93;4.30;;;13.70;38.50;;;;;;10316799;28;20322;-78
2022/05/03 05:35:35;;;;;;;5.63;5.23;;;13.70;38.30;;;;;;10313086;28;20231;-79
2022/05/03 05:40:39;;;;;;;5.23;4.90;;;13.60;38.30;;;;;;10313766;28;20233;-78
2022/05/03 05:45:43;;;;;;;5.20;4.70;;;13.60;39.00;;;;;;10316744;28;20238;-78
2022/05/03 05:50:46;;;;;;;4.93;4.63;;;13.60;38.70;;;;;;10308032;28;20233;-78
2022/05/03 05:55:52;;;;;;;5.43;5.03;;;13.50;38.90;;;;;;10316313;28;20235;-78
2022/05/03 06:00:56;;;;;;;5.80;5.40;;;13.60;40.00;;;;;;10315179;28;20252;-79
2022/05/03 06:06:00;;;;;;;5.80;5.30;;;13.60;39.30;;;;;;10309059;28;20228;-79
2022/05/03 06:11:04;;;;;;;7.20;6.60;;;13.80;39.50;;;;;;10312803;28;20242;-78
2022/05/03 06:16:09;;;;;;;6.57;5.97;;;13.90;40.20;;;;;;10311304;28;20609;-79
2022/05/03 06:21:12;;;;;;;7.13;6.53;;;14.00;39.90;;;;;;10309210;28;20838;-78
2022/05/03 06:26:16;;;;;;;7.63;6.93;;;14.10;39.90;;;;;;10310097;28;20230;-78
2022/05/03 06:31:23;;;;;;;7.60;6.90;;;14.30;40.50;;;;;;10311804;28;20250;-78
2022/05/03 06:36:26;;;;;;;10.30;9.23;;;14.40;40.80;;;;;;10307536;28;20323;-78
2022/05/03 06:41:31;;;;;;;8.17;7.57;;;14.50;40.30;;;;;;10308626;28;21174;-78
2022/05/03 06:46:34;;;;;;;8.70;7.90;;;14.70;40.70;;;;;;10310799;28;20231;-78
2022/05/03 06:51:38;;;;;;;8.37;7.70;;;14.80;40.30;;;;;;10311803;28;20227;-78
2022/05/03 06:56:42;;;;;;;9.60;8.80;;;14.90;40.40;;;;;;10308707;28;20226;-78
2022/05/03 07:01:45;;;;;;;10.03;9.23;;;15.00;41.10;;;;;;10316552;28;20638;-78
2022/05/03 07:06:49;;;;;;;8.70;8.00;;;15.20;40.70;;;;;;10322731;28;20231;-78
2022/05/03 07:11:53;;;;;;;8.43;7.83;;;15.30;40.70;;;;;;10306076;28;20223;-78
2022/05/03 07:16:56;;;;;;;8.27;7.57;;;15.40;41.20;;;;;;10313429;28;20233;-78
2022/05/03 07:27:21;;;;;;;7.50;6.90;;;15.60;40.90;;;;;;10310781;28;20235;-78
2022/05/03 07:32:24;;;;;;;8.73;7.90;;;15.60;41.20;;;;;;10306095;28;20235;-78
2022/05/03 07:37:27;;;;;;;8.40;7.60;;;15.70;41.50;;;;;;10306051;28;20253;-78
2022/05/03 07:42:32;;;;;;;9.17;8.37;;;15.70;40.80;;;;;;10304897;28;20654;-78
2022/05/03 07:47:36;;;;;;;9.90;9.00;;;15.70;41.90;;;;;;10312232;28;20230;-78
2022/05/03 07:52:43;;;;;;;8.50;7.90;;;15.90;41.50;;;;;;10312863;28;20591;-79
2022/05/03 07:57:47;;;;;;;7.67;7.17;;;16.10;41.80;;;;;;10310434;28;20268;-79
2022/05/03 08:02:50;;;;;;;6.37;5.77;;;16.30;41.10;;;;;;10320012;28;20223;-78
2022/05/03 08:07:54;;;;;;;6.60;6.07;;;16.50;41.00;;;;;;10315953;28;20282;-78
2022/05/03 08:12:58;;;;;;;7.60;7.10;;;16.70;40.60;;;;;;10322392;28;20230;-78
2022/05/03 08:18:01;;;;;;;7.60;7.10;;;16.90;40.40;;;;;;10321745;28;20227;-79
2022/05/03 08:23:04;;;;;;;8.30;7.70;;;17.20;40.20;;;;;;10315440;28;20308;-78
2022/05/03 08:28:09;;;;;;;6.93;6.43;;;17.30;40.00;;;;;;10309120;28;20739;-78
2022/05/03 08:33:12;;;;;;;7.10;6.60;;;17.30;40.00;;;;;;10311833;28;20270;-78
2022/05/03 08:43:39;;;;;;;6.87;6.37;;;17.40;40.10;;;;;;10315593;28;20233;-79
2022/05/03 08:48:45;;;;;;;7.00;6.43;;;17.50;39.80;;;;;;10322106;28;20249;-78
2022/05/03 08:53:55;;;;;;;6.70;6.10;;;17.70;39.70;;;;;;10319150;28;20724;-78
2022/05/03 08:59:01;;;;;;;7.30;6.70;;;17.80;39.60;;;;;;10317303;28;20229;-78
2022/05/03 09:04:04;;;;;;;6.90;6.37;;;17.90;39.20;;;;;;10325350;28;20227;-78
2022/05/03 09:09:11;;;;;;;6.47;5.93;;;18.00;39.20;;;;;;10319270;28;20989;-78
2022/05/03 09:14:35;;;;;;;6.33;5.80;;;18.20;38.90;;;;;;10321749;28;20601;-78
2022/05/03 09:19:38;;;;;;;5.73;5.23;;;18.30;38.80;;;;;;10309554;28;20730;-78
2022/05/03 09:24:55;;;;;;;5.47;4.93;;;18.50;38.20;;;;;;10307632;28;20228;-78
2022/05/03 09:30:05;;;;;;;4.23;3.90;;;18.70;37.30;;;;;;10328564;28;20236;-78
2022/05/03 09:35:31;;;;;;;4.17;3.87;;;18.90;36.70;;;;;;10318106;28;20238;-78
2022/05/03 09:40:36;;;;;;;5.63;5.13;;;19.20;37.30;;;;;;10325682;28;20222;-78
2022/05/03 09:45:41;;;;;;;3.50;3.30;;;19.50;37.10;;;;;;10309274;28;20229;-78
2022/05/03 09:50:46;;;;;;;3.63;3.33;;;19.90;36.40;;;;;;10319449;28;20309;-79
2022/05/03 09:55:50;;;;;;;3.33;3.13;;;20.30;36.80;;;;;;10315956;28;20228;-79
2022/05/03 10:00:54;;;;;;;4.00;3.60;;;20.50;36.00;;;;;;10314150;28;20231;-79
2022/05/03 10:05:58;;;;;;;4.37;4.00;;;20.80;35.10;;;;;;10309836;28;20313;-78
2022/05/03 10:11:02;;;;;;;3.20;3.00;;;21.00;35.20;;;;;;10323560;28;20227;-80
2022/05/03 10:21:40;;;;;;;3.47;3.17;;;21.50;34.30;;;;;;10239430;28;20226;-80
2022/05/03 10:27:05;;;;;;;3.67;3.37;;;21.80;34.60;;;;;;10306661;28;20231;-79
2022/05/03 10:32:16;;;;;;;4.10;3.70;;;22.00;33.10;;;;;;10342192;28;20241;-80
2022/05/03 10:37:20;;;;;;;4.53;4.20;;;22.20;31.60;;;;;;10343032;28;20593;-79
2022/05/03 10:42:26;;;;;;;3.90;3.60;;;22.30;33.10;;;;;;10347617;28;20228;-78
2022/05/03 10:47:57;;;;;;;3.77;3.53;;;22.40;33.10;;;;;;10353793;28;20227;-79
2022/05/03 10:53:22;;;;;;;4.17;3.87;;;22.50;33.20;;;;;;10315107;28;20227;-78
2022/05/03 10:58:28;;;;;;;3.97;3.67;;;22.70;31.60;;;;;;10340184;28;20237;-78
2022/05/03 11:03:34;;;;;;;3.80;3.50;;;22.90;32.50;;;;;;10351998;28;20710;-79
2022/05/03 11:08:37;;;;;;;3.73;3.43;;;23.00;31.90;;;;;;10350256;28;20477;-78
2022/05/03 11:13:42;;;;;;;3.93;3.27;;;23.20;32.50;;;;;;10350959;28;20229;-79
2022/05/03 11:18:48;;;;;;;3.83;3.53;;;23.40;31.40;;;;;;10344921;28;20233;-79
2022/05/03 11:23:53;;;;;;;3.63;3.43;;;23.50;30.10;;;;;;10330755;28;20305;-79
2022/05/03 11:29:01;;;;;;;3.50;3.20;;;23.60;31.00;;;;;;10350444;28;20218;-79
2022/05/03 11:34:07;;;;;;;3.70;3.43;;;23.70;29.90;;;;;;10350784;28;20223;-78
2022/05/03 11:39:12;;;;;;;3.60;3.37;;;23.70;30.00;;;;;;10354254;28;20798;-79
2022/05/03 11:44:17;;;;;;;3.47;3.27;;;23.70;30.30;;;;;;10351770;28;20230;-79
2022/05/03 11:49:22;;;;;;;3.37;3.17;;;23.70;29.90;;;;;;10352709;28;20233;-79
2022/05/03 11:59:50;;;;;;;3.47;3.27;;;23.70;29.50;;;;;;10354380;28;20233;-79
2022/05/03 12:05:12;;;;;;;3.73;3.53;;;23.60;29.30;;;;;;10351450;28;20235;-79
2022/05/03 12:10:20;;;;;;;3.70;3.50;;;23.60;27.80;;;;;;10352106;28;20317;-78
2022/05/03 12:15:25;;;;;;;3.47;3.27;;;23.60;28.40;;;;;;10347237;28;20238;-79
2022/05/03 12:20:42;;;;;;;3.50;3.30;;;23.50;28.90;;;;;;10355973;28;21128;-79
2022/05/03 12:25:47;;;;;;;3.20;3.00;;;23.50;27.70;;;;;;10350396;28;20813;-79
2022/05/03 12:30:59;;;;;;;3.23;3.03;;;23.40;28.40;;;;;;10347950;28;20226;-79
2022/05/03 12:36:06;;;;;;;3.60;3.40;;;23.40;27.70;;;;;;10343893;28;20238;-78
2022/05/03 12:41:10;;;;;;;3.23;3.03;;;23.30;28.40;;;;;;10345164;28;20222;-78
2022/05/03 12:46:15;;;;;;;3.17;2.97;;;23.30;29.20;;;;;;10344863;28;20250;-78
2022/05/03 12:51:21;;;;;;;3.60;3.30;;;23.20;29.10;;;;;;10344393;28;20288;-79
2022/05/03 13:01:47;;;;;;;3.50;3.17;;;23.30;28.90;;;;;;10345444;28;20225;-79
2022/05/03 13:06:53;;;;;;;3.80;3.13;;;23.40;28.40;;;;;;10343289;28;20227;-79
2022/05/03 13:11:57;;;;;;;3.70;3.40;;;23.50;27.80;;;;;;10352812;28;20222;-78
2022/05/03 13:17:00;;;;;;;4.00;3.70;;;23.50;28.50;;;;;;10346924;28;20230;-78
2022/05/03 13:22:05;;;;;;;3.40;3.20;;;23.50;28.30;;;;;;10348390;28;20223;-78
2022/05/03 13:27:09;;;;;;;3.80;3.60;;;23.60;27.80;;;;;;10352594;28;20717;-78
2022/05/03 13:32:12;;;;;;;3.50;3.30;;;23.70;27.80;;;;;;10345628;28;20285;-78
2022/05/03 13:42:52;;;;;;;3.30;3.10;;;23.70;27.80;;;;;;10151508;29;20901;-78
2022/05/03 13:47:55;;;;;;;4.10;3.80;;;23.70;27.60;;;;;;10304792;28;20233;-77
2022/05/03 13:52:59;;;;;;;3.90;3.47;;;23.60;27.80;;;;;;10359254;28;20733;-78
2022/05/03 13:58:03;;;;;;;4.20;3.50;;;23.50;27.70;;;;;;10357192;28;20246;-78
2022/05/03 14:03:07;;;;;;;3.47;3.27;;;23.40;27.60;;;;;;10349805;28;20222;-78
2022/05/03 14:08:13;;;;;;;3.80;3.50;;;23.30;27.50;;;;;;10349988;28;20314;-81
2022/05/03 14:13:17;;;;;;;3.60;3.40;;;23.30;27.50;;;;;;10355341;28;20778;-78
2022/05/03 14:18:20;;;;;;;3.30;3.10;;;23.30;27.50;;;;;;10355983;28;20230;-75
2022/05/03 14:23:26;;;;;;;2.90;2.70;;;23.40;27.60;;;;;;10353502;28;21361;-76
2022/05/03 14:28:32;;;;;;;3.10;2.80;;;23.50;27.70;;;;;;10353583;28;20807;-77
2022/05/03 14:33:35;;;;;;;3.03;2.83;;;23.60;27.80;;;;;;10339889;28;20233;-77
2022/05/03 14:38:39;;;;;;;3.00;2.80;;;23.70;27.30;;;;;;10343050;28;20784;-77
2022/05/03 14:43:43;;;;;;;2.97;2.77;;;23.70;26.60;;;;;;10342228;28;20226;-77
2022/05/03 14:48:46;;;;;;;2.63;2.50;;;23.70;26.70;;;;;;10343511;28;20222;-77
2022/05/03 14:53:51;;;;;;;3.60;2.67;;;23.80;26.60;;;;;;10343555;28;20726;-77
2022/05/03 15:04:14;;;;;;;2.70;2.50;;;23.80;26.70;;;;;;10346810;28;20218;-77
2022/05/03 15:09:19;;;;;;;2.43;2.33;;;23.80;26.60;;;;;;10346916;28;20225;-77
2022/05/03 15:14:22;;;;;;;2.70;2.50;;;23.80;26.50;;;;;;10346772;28;20241;-77
2022/05/03 15:19:25;;;;;;;2.70;2.50;;;23.70;26.40;;;;;;10347131;28;20234;-77
2022/05/03 15:24:39;;;;;;;2.97;2.77;;;23.80;26.20;;;;;;10347961;28;20233;-77
2022/05/03 15:29:43;;;;;;;2.67;2.47;;;23.90;25.60;;;;;;10351904;28;20231;-77
2022/05/03 15:34:46;;;;;;;2.53;2.33;;;23.90;26.00;;;;;;10346172;28;20237;-77
2022/05/03 15:39:51;;;;;;;2.43;2.33;;;24.00;25.90;;;;;;10347098;28;20235;-77
2022/05/03 15:44:57;;;;;;;2.97;2.67;;;24.10;25.20;;;;;;10341677;28;20277;-77
2022/05/03 15:50:01;;;;;;;2.30;2.10;;;24.10;25.70;;;;;;10348519;28;20237;-77
2022/05/03 15:55:08;;;;;;;2.80;2.60;;;24.10;25.60;;;;;;10348521;28;20634;-77
2022/05/03 16:00:14;;;;;;;2.30;2.20;;;24.10;25.20;;;;;;10344799;28;20318;-73
2022/05/03 16:05:19;;;;;;;2.50;2.30;;;24.20;26.20;;;;;;10343336;28;20222;-72
2022/05/03 16:10:23;;;;;;;2.97;2.33;;;24.20;25.60;;;;;;10344787;28;20235;-74
2022/05/03 16:15:27;;;;;;;2.30;2.20;;;24.30;25.40;;;;;;10348125;28;20872;-74
2022/05/03 16:20:30;;;;;;;2.70;2.50;;;24.30;26.00;;;;;;10344542;28;20238;-74
2022/05/03 16:25:34;;;;;;;2.77;2.50;;;24.40;25.30;;;;;;10333827;28;20242;-74
2022/05/03 16:30:38;;;;;;;3.40;2.70;;;24.40;24.80;;;;;;10332715;28;20596;-74
2022/05/03 16:35:41;;;;;;;2.53;2.40;;;24.50;25.00;;;;;;10342658;28;20232;-75
2022/05/03 16:46:11;;;;;;;2.40;2.30;;;24.50;24.10;;;;;;10339007;28;20231;-74
2022/05/03 16:51:15;;;;;;;3.53;2.40;;;24.50;24.40;;;;;;10341312;28;20275;-75
2022/05/03 16:56:20;;;;;;;3.00;2.80;;;24.50;24.40;;;;;;10338614;28;20230;-74
2022/05/03 17:01:23;;;;;;;3.00;2.80;;;24.50;24.00;;;;;;10341177;28;20243;-75
2022/05/03 17:06:27;;;;;;;2.80;2.60;;;24.40;24.40;;;;;;10342720;28;20289;-75
2022/05/03 17:11:31;;;;;;;3.00;2.80;;;24.30;24.30;;;;;;10340720;28;20221;-75
2022/05/03 17:16:34;;;;;;;2.73;2.53;;;24.20;24.40;;;;;;10343125;28;20245;-75
2022/05/03 17:21:39;;;;;;;2.53;2.40;;;24.10;24.80;;;;;;10344055;28;20229;-75
2022/05/03 17:26:44;;;;;;;2.40;2.30;;;24.10;24.10;;;;;;10337565;28;20241;-75
2022/05/03 17:31:48;;;;;;;2.90;2.70;;;24.00;23.60;;;;;;10339715;28;20227;-75
2022/05/03 17:36:52;;;;;;;2.90;2.70;;;23.80;23.90;;;;;;10345726;28;20749;-75
2022/05/03 17:41:56;;;;;;;2.27;2.17;;;23.70;24.10;;;;;;10345880;28;20226;-75
2022/05/03 17:46:59;;;;;;;2.40;2.30;;;23.60;24.10;;;;;;10344018;28;20229;-75
2022/05/03 17:57:26;;;;;;;2.60;2.40;;;23.40;24.40;;;;;;10335609;28;20780;-75
2022/05/03 18:02:29;;;;;;;2.57;2.43;;;23.30;24.30;;;;;;10340196;28;20237;-75
2022/05/03 18:07:33;;;;;;;2.37;2.27;;;23.30;24.50;;;;;;10341458;28;20639;-74
2022/05/03 18:12:37;;;;;;;2.60;2.50;;;23.20;24.50;;;;;;10348552;28;20233;-74
2022/05/03 18:17:40;;;;;;;2.80;2.60;;;23.10;24.50;;;;;;10342292;28;20357;-75
2022/05/03 18:22:45;;;;;;;2.90;2.70;;;22.90;24.50;;;;;;10341700;28;20310;-75
2022/05/03 18:27:51;;;;;;;2.33;2.23;;;22.80;24.70;;;;;;10344875;28;20246;-75
2022/05/03 18:32:56;;;;;;;2.87;2.67;;;22.60;24.80;;;;;;10341455;28;20233;-75
2022/05/03 18:37:59;;;;;;;2.83;2.63;;;22.60;25.00;;;;;;10345717;28;20231;-75
2022/05/03 18:43:04;;;;;;;2.53;2.40;;;22.50;25.00;;;;;;10344649;28;20641;-75
2022/05/03 18:48:08;;;;;;;2.80;2.60;;;22.40;25.00;;;;;;10326835;28;20581;-77
2022/05/03 18:53:11;;;;;;;2.73;2.50;;;22.30;25.10;;;;;;10341274;28;20730;-77
2022/05/03 18:58:17;;;;;;;2.83;2.63;;;22.20;25.20;;;;;;10334627;28;20237;-76
2022/05/03 19:03:20;;;;;;;2.70;2.50;;;22.20;25.30;;;;;;10334924;28;20233;-76
2022/05/03 19:08:24;;;;;;;2.90;2.70;;;22.10;25.40;;;;;;10335358;28;20243;-76
2022/05/03 19:13:28;;;;;;;3.30;3.00;;;22.00;25.40;;;;;;10337128;28;20241;-76
2022/05/03 19:18:32;;;;;;;3.97;3.07;;;21.80;25.60;;;;;;10330336;28;20398;-76
2022/05/03 19:30:31;;;;;;;3.03;2.83;;;21.70;25.60;;;;;;10328934;28;20234;-76
2022/05/03 19:34:26;;;;;;;2.90;2.70;;;21.50;26.00;;;;;;10339900;28;20242;-75
2022/05/03 19:39:29;;;;;;;3.63;3.33;;;21.40;26.30;;;;;;10339732;28;20234;-74
2022/05/03 19:44:34;;;;;;;3.63;3.33;;;21.30;26.20;;;;;;10350946;28;20225;-76
2022/05/03 19:49:37;;;;;;;3.67;3.40;;;21.20;26.10;;;;;;10343776;28;20233;-78
2022/05/03 19:54:40;;;;;;;4.03;3.73;;;21.10;26.10;;;;;;10340263;28;20233;-78
2022/05/03 19:59:45;;;;;;;6.33;5.27;;;20.90;25.90;;;;;;10344445;28;20317;-78
2022/05/03 20:04:49;;;;;;;4.63;3.90;;;20.50;25.60;;;;;;10347253;28;20222;-77
2022/05/03 20:09:52;;;;;;;4.10;3.80;;;20.00;26.00;;;;;;10342822;28;20237;-74
2022/05/03 20:14:58;;;;;;;4.03;3.67;;;19.50;26.60;;;;;;10345398;28;20232;-75
2022/05/03 20:20:04;;;;;;;3.43;3.13;;;19.20;27.20;;;;;;10337227;28;20237;-75
2022/05/03 20:25:10;;;;;;;3.70;3.30;;;19.20;27.50;;;;;;10334615;28;20230;-75
2022/05/03 20:30:16;;;;;;;3.10;2.90;;;19.20;27.40;;;;;;10340646;28;20233;-75
2022/05/03 20:35:19;;;;;;;3.50;3.20;;;19.20;27.50;;;;;;10338950;28;20226;-78
2022/05/03 20:40:23;;;;;;;3.20;2.90;;;19.20;27.40;;;;;;10342777;28;20243;-77
2022/05/03 20:45:28;;;;;;;3.33;3.03;;;19.30;27.50;;;;;;10331195;28;20240;-78
2022/05/03 20:50:31;;;;;;;3.80;3.60;;;19.40;27.90;;;;;;10343896;28;20222;-78
2022/05/03 20:55:34;;;;;;;3.67;3.40;;;19.40;27.60;;;;;;10339075;28;20234;-78
2022/05/03 21:00:39;;;;;;;3.90;3.60;;;19.40;27.50;;;;;;10344697;28;20261;-78
2022/05/03 21:05:43;;;;;;;4.13;3.70;;;19.40;27.50;;;;;;10334566;28;20579;-78
2022/05/03 21:10:46;;;;;;;4.37;4.07;;;19.20;27.40;;;;;;10341449;28;20224;-78
2022/05/03 21:15:51;;;;;;;5.40;4.90;;;19.20;27.50;;;;;;10343279;28;20227;-78
2022/05/03 21:20:55;;;;;;;5.30;4.63;;;19.00;27.90;;;;;;10347627;28;20991;-77
2022/05/03 21:26:01;;;;;;;5.17;4.70;;;18.90;27.90;;;;;;10341967;28;21179;-78
2022/05/03 21:31:09;;;;;;;4.80;4.40;;;18.80;27.90;;;;;;10345922;28;20858;-78
2022/05/03 21:36:12;;;;;;;4.40;3.80;;;18.80;28.20;;;;;;10346536;28;20230;-78
2022/05/03 21:41:16;;;;;;;4.97;4.47;;;18.80;28.60;;;;;;10338733;28;20229;-78
2022/05/03 21:46:21;;;;;;;4.33;4.03;;;18.80;28.10;;;;;;10347830;28;20704;-78
2022/05/03 21:51:24;;;;;;;4.47;4.07;;;18.80;28.20;;;;;;10346140;28;20274;-78
2022/05/03 21:56:28;;;;;;;4.37;3.97;;;18.80;28.10;;;;;;10348572;28;20322;-78
2022/05/03 22:01:35;;;;;;;4.20;3.80;;;18.70;28.00;;;;;;10343147;28;20240;-78
2022/05/03 22:06:39;;;;;;;3.60;3.30;;;18.60;28.10;;;;;;10343472;28;20288;-78
2022/05/03 22:11:46;;;;;;;4.10;3.80;;;18.40;28.00;;;;;;10348158;28;20599;-78
2022/05/03 22:16:51;;;;;;;4.20;3.90;;;18.20;28.00;;;;;;10345889;28;20233;-79
2022/05/03 22:21:54;;;;;;;5.27;3.77;;;18.00;28.30;;;;;;10351832;28;20226;-78
2022/05/03 22:26:57;;;;;;;4.10;3.80;;;17.80;28.40;;;;;;10347379;28;20226;-78
2022/05/03 22:32:02;;;;;;;4.30;4.00;;;17.70;28.50;;;;;;10345113;28;20222;-78
2022/05/03 22:37:06;;;;;;;4.30;4.00;;;17.50;28.80;;;;;;10299267;28;20215;-78
2022/05/03 22:42:10;;;;;;;4.53;4.13;;;17.40;28.60;;;;;;10309636;28;20230;-78
2022/05/03 22:47:15;;;;;;;3.90;3.60;;;17.20;28.90;;;;;;10301739;28;20237;-78
2022/05/03 22:52:18;;;;;;;4.23;3.87;;;17.10;29.30;;;;;;10301464;28;20705;-78
2022/05/03 22:57:21;;;;;;;4.13;3.83;;;17.10;29.20;;;;;;10304303;28;20272;-78
2022/05/03 23:02:26;;;;;;;4.53;4.17;;;17.10;29.20;;;;;;10302711;28;20227;-78
2022/05/03 23:07:29;;;;;;;3.43;3.23;;;17.10;29.50;;;;;;10305543;28;20234;-78
2022/05/03 23:12:32;;;;;;;3.97;3.67;;;17.10;29.10;;;;;;10303720;28;20309;-78
2022/05/03 23:17:37;;;;;;;4.33;3.90;;;17.10;29.20;;;;;;10303654;28;20262;-78
2022/05/03 23:22:40;;;;;;;4.83;4.40;;;17.10;29.40;;;;;;10306040;28;20919;-78
2022/05/03 23:27:43;;;;;;;4.03;3.70;;;17.00;29.10;;;;;;10305331;28;20746;-79
2022/05/03 23:32:48;;;;;;;4.23;3.83;;;16.80;29.00;;;;;;10312557;28;20230;-78
2022/05/03 23:37:52;;;;;;;4.50;4.10;;;16.50;29.40;;;;;;10315309;28;20231;-78
2022/05/03 23:42:58;;;;;;;4.63;4.33;;;16.30;29.40;;;;;;10302093;28;20230;-78
2022/05/03 23:48:02;;;;;;;4.50;4.20;;;16.20;29.80;;;;;;10312531;28;20607;-78
2022/05/03 23:53:06;;;;;;;4.00;3.70;;;16.00;29.80;;;;;;10312834;28;20291;-78
2022/05/03 23:58:09;;;;;;;4.43;3.37;;;15.80;29.80;;;;;;10312082;28;20227;-78
